Time;durP1;ratioP1;P1;durP2;ratioP2;P2;SDS_P1;SDS_P2;PMS_P1;PMS_P2;Temp;Humidity;BMP_temperature;BMP_pressure;BME280_temperature;BME280_humidity;BME280_pressure;Samples;Min_cycle;Max_cycle;Signal;HPM_P1;HPM_P2
2023/05/07 00:01:13;;;;;;;15.10;13.20;;;;;;;14.97;100.00;100890.22;4953521;28;20122;-80
2023/05/07 00:03:40;;;;;;;13.05;11.70;;;;;;;14.99;100.00;100885.56;4955449;28;20055;-78
2023/05/07 00:06:07;;;;;;;13.07;11.45;;;;;;;15.03;100.00;100889.50;4951866;28;20469;-79
2023/05/07 00:08:33;;;;;;;14.93;11.90;;;;;;;14.99;100.00;100890.84;4951874;29;20517;-78
2023/05/07 00:11:00;;;;;;;12.40;11.05;;;;;;;15.05;100.00;100871.69;4951926;29;20133;-79
2023/05/07 00:13:30;;;;;;;12.57;11.13;;;;;;;14.86;100.00;100871.19;4952843;29;20138;-78
2023/05/07 00:15:57;;;;;;;15.85;11.73;;;;;;;14.79;100.00;100875.53;4949975;28;20090;-79
2023/05/07 00:18:23;;;;;;;13.45;11.05;;;;;;;14.67;100.00;100866.41;4951614;28;20091;-78
2023/05/07 00:20:50;;;;;;;12.73;11.32;;;;;;;14.69;100.00;100874.94;4947295;28;20159;-79
2023/05/07 00:23:18;;;;;;;13.07;10.55;;;;;;;14.69;100.00;100880.22;4952597;28;20062;-79
2023/05/07 00:25:45;;;;;;;12.77;10.77;;;;;;;14.69;100.00;100874.13;4939214;29;20071;-78
2023/05/07 00:28:11;;;;;;;14.02;11.65;;;;;;;14.69;100.00;100884.66;4952155;28;20051;-78
2023/05/07 00:30:39;;;;;;;12.77;10.65;;;;;;;14.66;100.00;100890.28;4948128;29;20442;-79
2023/05/07 00:33:06;;;;;;;12.82;11.18;;;;;;;14.55;100.00;100887.09;4952839;28;20130;-78
2023/05/07 00:35:33;;;;;;;13.75;11.70;;;;;;;14.49;100.00;100887.78;4951203;28;20129;-79
2023/05/07 00:37:59;;;;;;;13.35;10.95;;;;;;;14.48;100.00;100887.94;4951725;29;20083;-79
2023/05/07 00:40:26;;;;;;;15.00;12.05;;;;;;;14.36;100.00;100890.13;4950571;28;20059;-77
2023/05/07 00:42:56;;;;;;;12.35;11.05;;;;;;;14.35;100.00;100882.41;4950577;29;20109;-76
2023/05/07 00:45:26;;;;;;;14.70;11.15;;;;;;;14.28;100.00;100887.53;4947385;28;20582;-76
2023/05/07 00:47:56;;;;;;;12.90;11.32;;;;;;;14.25;100.00;100890.53;4950281;28;20566;-77
2023/05/07 00:50:23;;;;;;;13.77;11.35;;;;;;;14.25;100.00;100891.34;4942441;28;20065;-77
2023/05/07 00:52:52;;;;;;;13.40;11.00;;;;;;;14.18;100.00;100892.19;4951232;28;20055;-78
2023/05/07 00:55:20;;;;;;;15.13;11.88;;;;;;;14.23;100.00;100887.25;4950197;28;20047;-78
2023/05/07 00:57:46;;;;;;;12.52;11.07;;;;;;;14.27;100.00;100884.09;4950306;29;20070;-78
2023/05/07 01:00:14;;;;;;;11.80;10.65;;;;;;;14.32;100.00;100893.28;4948417;28;20434;-76
2023/05/07 01:02:41;;;;;;;12.15;10.82;;;;;;;14.38;100.00;100893.41;4950300;28;20475;-77
2023/05/07 01:05:13;;;;;;;12.70;10.63;;;;;;;14.40;100.00;100888.78;4950381;29;20058;-77
2023/05/07 01:07:41;;;;;;;12.52;10.38;;;;;;;14.41;100.00;100892.25;4950869;28;20057;-77
2023/05/07 01:10:10;;;;;;;12.95;10.73;;;;;;;14.48;100.00;100887.94;4950348;28;20138;-78
2023/05/07 01:12:38;;;;;;;13.80;10.57;;;;;;;14.38;100.00;100884.69;4946677;28;20113;-77
2023/05/07 01:15:08;;;;;;;11.13;9.93;;;;;;;14.39;100.00;100881.88;4943880;29;20102;-76
2023/05/07 01:17:36;;;;;;;11.57;9.80;;;;;;;14.36;100.00;100873.50;4948486;28;20074;-77
2023/05/07 01:20:04;;;;;;;11.93;9.77;;;;;;;14.36;100.00;100876.97;4944724;28;20079;-77
2023/05/07 01:22:34;;;;;;;12.30;10.18;;;;;;;14.35;100.00;100871.88;5025559;23;20062;-78
2023/05/07 01:25:01;;;;;;;11.45;9.88;;;;;;;14.39;100.00;100871.34;4976381;28;20059;-78
2023/05/07 01:27:28;;;;;;;11.18;9.63;;;;;;;14.42;100.00;100880.75;5016979;28;20524;-79
2023/05/07 01:29:55;;;;;;;12.65;10.02;;;;;;;14.44;100.00;100881.41;4976598;28;20082;-79
2023/05/07 01:32:29;;;;;;;12.07;9.27;;;;;;;14.42;100.00;100870.22;4973731;28;20051;-79
2023/05/07 01:34:58;;;;;;;11.35;9.65;;;;;;;14.50;100.00;100876.25;4976711;28;20101;-79
2023/05/07 01:37:26;;;;;;;10.70;8.55;;;;;;;14.50;100.00;100872.81;4975546;28;20047;-80
2023/05/07 01:39:55;;;;;;;14.15;9.20;;;;;;;14.47;100.00;100879.25;4974073;28;20058;-79
2023/05/07 01:42:22;;;;;;;12.48;9.30;;;;;;;14.46;100.00;100871.50;4972650;28;20077;-79
2023/05/07 01:44:49;;;;;;;10.85;9.00;;;;;;;14.40;100.00;100872.19;4973812;28;20119;-79
2023/05/07 01:47:17;;;;;;;11.65;8.70;;;;;;;14.34;100.00;100864.97;4975223;28;20077;-80
2023/05/07 01:49:44;;;;;;;9.85;8.30;;;;;;;14.34;100.00;100875.50;4979550;28;20047;-80
2023/05/07 01:52:11;;;;;;;10.02;8.57;;;;;;;14.32;100.00;100866.97;4979282;28;20074;-79
2023/05/07 01:54:38;;;;;;;11.45;8.38;;;;;;;14.29;100.00;100861.03;4979693;28;20066;-79
2023/05/07 01:57:06;;;;;;;11.40;7.88;;;;;;;14.31;100.00;100860.88;4981177;28;20114;-80
2023/05/07 01:59:32;;;;;;;10.10;8.02;;;;;;;14.28;100.00;100864.69;4980125;28;20078;-79
2023/05/07 02:01:59;;;;;;;9.20;8.30;;;;;;;14.28;100.00;100862.03;4977846;28;20062;-79
2023/05/07 02:04:26;;;;;;;9.57;7.85;;;;;;;14.24;100.00;100871.28;4980646;28;20129;-79
2023/05/07 02:06:52;;;;;;;10.07;8.27;;;;;;;14.20;100.00;100856.81;4979029;28;20112;-79
2023/05/07 02:09:19;;;;;;;8.48;7.68;;;;;;;14.22;100.00;100860.09;4980738;28;20110;-79
2023/05/07 02:11:46;;;;;;;9.48;7.97;;;;;;;14.06;100.00;100852.31;5005148;28;20058;-79
2023/05/07 02:14:15;;;;;;;9.35;8.35;;;;;;;14.01;100.00;100846.75;4978237;28;20122;-79
2023/05/07 02:16:41;;;;;;;10.80;8.48;;;;;;;13.94;100.00;100853.69;4979074;28;20058;-80
2023/05/07 02:19:08;;;;;;;8.88;7.97;;;;;;;13.89;100.00;100858.66;4979048;28;20556;-80
2023/05/07 02:21:35;;;;;;;9.68;8.15;;;;;;;13.83;100.00;100861.97;4970852;28;20059;-78
2023/05/07 02:24:01;;;;;;;11.23;8.70;;;;;;;13.78;100.00;100864.28;4980144;28;20061;-79
2023/05/07 02:26:28;;;;;;;10.45;8.95;;;;;;;13.73;100.00;100866.59;4976199;28;20134;-80
2023/05/07 02:28:55;;;;;;;10.82;8.85;;;;;;;13.68;100.00;100861.06;4983204;28;20474;-79
2023/05/07 02:31:23;;;;;;;11.27;8.15;;;;;;;13.63;100.00;100856.31;4978812;28;20149;-80
2023/05/07 02:33:49;;;;;;;10.02;8.27;;;;;;;13.59;100.00;100861.09;4979581;28;20074;-79
2023/05/07 02:36:16;;;;;;;10.02;8.23;;;;;;;13.52;100.00;100860.13;4979658;28;20110;-79
2023/05/07 02:38:42;;;;;;;9.95;8.13;;;;;;;13.48;100.00;100864.09;4979131;28;20110;-80
2023/05/07 02:41:09;;;;;;;9.30;8.15;;;;;;;13.43;100.00;100874.28;4978902;28;20047;-78
2023/05/07 02:43:36;;;;;;;10.20;8.82;;;;;;;13.40;100.00;100874.63;4981335;28;20141;-79
2023/05/07 02:46:03;;;;;;;10.95;8.43;;;;;;;13.41;100.00;100873.63;4975067;28;20143;-80
2023/05/07 02:48:31;;;;;;;9.70;8.32;;;;;;;13.41;100.00;100884.13;4972968;28;20130;-81
2023/05/07 02:50:58;;;;;;;11.95;8.73;;;;;;;13.42;100.00;100882.34;4974047;28;20101;-80
2023/05/07 02:53:25;;;;;;;10.18;8.68;;;;;;;13.39;100.00;100877.41;4976389;28;20503;-80
2023/05/07 02:55:52;;;;;;;12.25;9.05;;;;;;;13.45;100.00;100882.81;4979001;28;20054;-80
2023/05/07 02:58:19;;;;;;;11.45;8.68;;;;;;;13.44;100.00;100889.06;4979291;28;20107;-79
2023/05/07 03:00:46;;;;;;;11.45;8.73;;;;;;;13.43;100.00;100878.72;4974352;28;20080;-79
2023/05/07 03:03:12;;;;;;;9.82;8.68;;;;;;;13.49;100.00;100892.00;4975706;28;20090;-79
2023/05/07 03:05:40;;;;;;;10.57;8.75;;;;;;;13.53;100.00;100882.81;4972996;28;20103;-80
2023/05/07 03:08:07;;;;;;;10.93;8.57;;;;;;;13.63;100.00;100879.16;4970683;28;20070;-79
2023/05/07 03:10:34;;;;;;;10.27;8.73;;;;;;;13.65;100.00;100880.63;4974471;28;20042;-79
2023/05/07 03:13:01;;;;;;;10.93;8.93;;;;;;;13.57;100.00;100878.84;4975714;28;20122;-79
2023/05/07 03:15:28;;;;;;;9.75;8.65;;;;;;;13.57;100.00;100878.84;4973643;28;20155;-79
2023/05/07 03:17:55;;;;;;;11.07;9.05;;;;;;;13.55;100.00;100872.13;4976060;28;20517;-79
2023/05/07 03:20:21;;;;;;;14.68;9.13;;;;;;;13.58;100.00;100875.22;4969159;28;20053;-79
2023/05/07 03:22:49;;;;;;;11.05;8.48;;;;;;;13.57;100.00;100867.50;4975462;28;20082;-78
2023/05/07 03:25:16;;;;;;;10.80;9.52;;;;;;;13.58;100.00;100861.25;4974529;28;20094;-79
2023/05/07 03:27:43;;;;;;;11.00;8.45;;;;;;;13.57;100.00;100868.34;4975119;28;20433;-78
2023/05/07 03:30:11;;;;;;;9.25;8.32;;;;;;;13.52;100.00;100864.56;4976388;28;20078;-78
2023/05/07 03:32:37;;;;;;;11.18;8.95;;;;;;;13.49;100.00;100868.34;4972134;28;20526;-78
2023/05/07 03:35:05;;;;;;;14.60;8.80;;;;;;;13.46;100.00;100867.88;4972512;28;20466;-77
2023/05/07 03:37:31;;;;;;;9.68;8.57;;;;;;;13.46;100.00;100871.31;4972555;28;20050;-78
2023/05/07 03:39:59;;;;;;;9.23;8.30;;;;;;;13.46;100.00;100866.06;4973049;28;20082;-78
2023/05/07 03:42:26;;;;;;;9.32;8.35;;;;;;;13.47;100.00;100875.59;4977680;28;20078;-78
2023/05/07 03:44:52;;;;;;;12.90;8.25;;;;;;;13.41;100.00;100876.25;4975050;28;20419;-79
2023/05/07 03:47:19;;;;;;;9.60;8.60;;;;;;;13.40;100.00;100860.66;4975489;28;20154;-79
2023/05/07 03:49:46;;;;;;;9.80;8.55;;;;;;;13.30;100.00;100871.34;4961522;28;20138;-79
2023/05/07 03:52:12;;;;;;;11.10;8.48;;;;;;;13.29;100.00;100867.06;4970911;28;20133;-79
2023/05/07 03:54:39;;;;;;;9.95;8.45;;;;;;;13.31;100.00;100873.00;4976492;28;20126;-79
2023/05/07 03:57:07;;;;;;;11.15;8.77;;;;;;;13.34;100.00;100867.41;4980508;28;20162;-78
2023/05/07 03:59:33;;;;;;;10.82;8.68;;;;;;;13.33;100.00;100876.28;4979534;28;20470;-78
2023/05/07 04:02:00;;;;;;;9.57;8.57;;;;;;;13.28;100.00;100873.31;4978269;28;20090;-79
2023/05/07 04:04:27;;;;;;;9.27;8.32;;;;;;;13.25;100.00;100873.66;4963838;28;20134;-77
2023/05/07 04:06:53;;;;;;;11.18;9.20;;;;;;;13.25;100.00;100878.91;4970243;28;20070;-78
2023/05/07 04:09:20;;;;;;;10.68;9.20;;;;;;;13.27;100.00;100883.00;4979676;28;20070;-79
2023/05/07 04:11:46;;;;;;;10.55;8.50;;;;;;;13.31;100.00;100883.50;4993761;28;20050;-78
2023/05/07 04:14:14;;;;;;;12.43;8.63;;;;;;;13.42;100.00;100892.84;4990527;28;20067;-79
2023/05/07 04:16:41;;;;;;;9.32;8.07;;;;;;;13.51;100.00;100892.66;4990812;28;20047;-78
2023/05/07 04:19:07;;;;;;;9.18;8.27;;;;;;;13.59;100.00;100883.94;4989625;28;20058;-78
2023/05/07 04:21:34;;;;;;;9.73;8.25;;;;;;;13.67;100.00;100877.84;4987987;28;20062;-79
2023/05/07 04:24:01;;;;;;;10.43;9.20;;;;;;;13.60;100.00;100878.50;4993191;28;20085;-79
2023/05/07 04:26:28;;;;;;;10.98;8.85;;;;;;;13.47;100.00;100874.75;4994916;28;20063;-79
2023/05/07 04:28:54;;;;;;;10.85;9.00;;;;;;;13.58;100.00;100875.22;4986461;28;20066;-79
2023/05/07 04:31:22;;;;;;;9.38;7.75;;;;;;;13.72;100.00;100880.75;4978510;28;20141;-79
2023/05/07 04:33:50;;;;;;;9.85;8.30;;;;;;;13.72;100.00;100872.84;4980175;28;20055;-79
2023/05/07 04:36:17;;;;;;;12.00;8.60;;;;;;;13.52;100.00;100873.28;4984424;28;20114;-79
2023/05/07 04:38:43;;;;;;;10.00;9.00;;;;;;;13.48;100.00;100874.59;4977979;28;20057;-80
2023/05/07 04:41:11;;;;;;;14.27;9.15;;;;;;;13.67;100.00;100875.22;4975014;28;20078;-79
2023/05/07 04:43:37;;;;;;;11.77;8.80;;;;;;;13.67;100.00;100875.22;4971023;28;20059;-79
2023/05/07 04:46:04;;;;;;;9.13;8.23;;;;;;;13.93;100.00;100876.56;4978488;28;20134;-79
2023/05/07 04:48:32;;;;;;;9.35;8.05;;;;;;;14.17;100.00;100885.31;4977314;28;20137;-79
2023/05/07 04:50:59;;;;;;;10.02;7.70;;;;;;;14.23;100.00;100880.16;4970648;28;20144;-79
2023/05/07 04:53:25;;;;;;;10.23;7.85;;;;;;;14.08;100.00;100871.38;4977242;28;20057;-79
2023/05/07 04:55:56;;;;;;;8.48;7.68;;;;;;;14.18;100.00;100879.03;4976026;28;20043;-80
2023/05/07 04:58:23;;;;;;;10.63;7.68;;;;;;;14.28;100.00;100883.09;4971174;28;20053;-79
2023/05/07 05:00:49;;;;;;;8.70;7.80;;;;;;;14.42;100.00;100878.13;4974232;28;20138;-80
2023/05/07 05:03:16;;;;;;;10.45;8.07;;;;;;;14.57;100.00;100876.38;4975021;28;20078;-79
2023/05/07 05:05:45;;;;;;;8.75;7.38;;;;;;;14.60;100.00;100881.28;4974036;28;20149;-79
2023/05/07 05:08:12;;;;;;;9.07;7.65;;;;;;;14.61;100.00;100877.66;4974689;28;20097;-80
2023/05/07 05:10:38;;;;;;;11.15;7.57;;;;;;;14.55;100.00;100883.63;4970876;28;20528;-80
2023/05/07 05:13:05;;;;;;;8.80;7.43;;;;;;;14.25;100.00;100872.09;4970443;28;20085;-80
2023/05/07 05:15:31;;;;;;;13.07;7.88;;;;;;;14.08;100.00;100876.66;4971879;28;20049;-80
2023/05/07 05:17:58;;;;;;;10.05;8.60;;;;;;;14.02;100.00;100877.34;4975210;28;20114;-79
2023/05/07 05:20:25;;;;;;;9.30;7.63;;;;;;;14.12;100.00;100875.31;4975883;28;20541;-80
2023/05/07 05:22:53;;;;;;;11.20;7.65;;;;;;;14.22;100.00;100883.78;4975916;28;22071;-80
2023/05/07 05:25:19;;;;;;;11.73;7.50;;;;;;;14.35;100.00;100887.66;4974263;28;20556;-79
2023/05/07 05:27:46;;;;;;;9.05;7.13;;;;;;;14.57;100.00;100892.19;4968333;28;20047;-80
2023/05/07 05:30:13;;;;;;;8.98;7.45;;;;;;;14.69;100.00;100896.00;4972286;28;20138;-80
2023/05/07 05:32:40;;;;;;;9.02;6.97;;;;;;;14.73;100.00;100893.84;4973169;28;20051;-79
2023/05/07 05:35:07;;;;;;;10.68;6.50;;;;;;;14.83;100.00;100903.16;4967387;28;20051;-80
2023/05/07 05:37:34;;;;;;;7.20;6.22;;;;;;;14.87;100.00;100904.44;4972874;28;20078;-79
2023/05/07 05:40:03;;;;;;;9.40;7.45;;;;;;;14.81;100.00;100907.78;4973448;28;20126;-79
2023/05/07 05:42:29;;;;;;;9.18;6.38;;;;;;;14.82;100.00;100900.69;4973433;28;20122;-79
2023/05/07 05:44:56;;;;;;;8.18;6.95;;;;;;;14.81;100.00;100909.59;4973836;28;20129;-78
2023/05/07 05:47:23;;;;;;;11.02;6.97;;;;;;;14.86;100.00;100908.06;4971259;28;20047;-79
2023/05/07 05:49:50;;;;;;;7.95;6.90;;;;;;;14.85;100.00;100906.44;4974595;28;20126;-80
2023/05/07 05:52:17;;;;;;;9.07;6.70;;;;;;;14.92;100.00;100906.53;4977426;28;20085;-79
2023/05/07 05:54:44;;;;;;;8.75;7.22;;;;;;;14.98;100.00;100910.28;5009306;28;20051;-79
2023/05/07 05:57:12;;;;;;;11.68;6.85;;;;;;;15.10;100.00;100908.88;4973152;28;20043;-78
2023/05/07 05:59:43;;;;;;;9.88;6.78;;;;;;;15.18;100.00;100908.78;4973714;28;20146;-79
2023/05/07 06:02:09;;;;;;;12.38;6.70;;;;;;;15.26;100.00;100913.97;4972978;28;20057;-79
2023/05/07 06:04:36;;;;;;;7.68;6.07;;;;;;;15.46;100.00;100907.19;4970231;28;20204;-77
2023/05/07 06:07:02;;;;;;;9.45;6.65;;;;;;;15.58;100.00;100918.16;4969882;28;20073;-77
2023/05/07 06:09:29;;;;;;;7.82;6.38;;;;;;;15.70;100.00;100913.22;4970965;28;20137;-77
2023/05/07 06:11:55;;;;;;;10.23;6.68;;;;;;;15.80;100.00;100919.03;4970510;28;20053;-77
2023/05/07 06:14:23;;;;;;;7.65;6.80;;;;;;;15.80;100.00;100916.41;4970566;28;20141;-78
2023/05/07 06:16:50;;;;;;;8.05;6.45;;;;;;;15.46;99.90;100916.91;4969015;28;20126;-77
2023/05/07 06:19:18;;;;;;;8.98;6.38;;;;;;;15.85;100.00;100914.03;4970321;28;20110;-77
2023/05/07 06:21:44;;;;;;;8.52;6.18;;;;;;;16.23;99.28;100920.78;4963375;28;20047;-77
2023/05/07 06:24:11;;;;;;;11.52;7.53;;;;;;;16.60;98.14;100924.22;4971618;28;20046;-78
2023/05/07 06:26:37;;;;;;;8.65;6.15;;;;;;;16.68;95.97;100912.75;4972539;28;20090;-77
2023/05/07 06:29:04;;;;;;;7.05;6.32;;;;;;;16.46;94.72;100896.88;4965177;28;20131;-77
2023/05/07 06:31:32;;;;;;;9.63;6.20;;;;;;;16.65;93.87;100898.09;4971166;28;20132;-78
2023/05/07 06:33:59;;;;;;;7.07;6.20;;;;;;;16.60;93.82;100903.09;4974531;28;20062;-78
2023/05/07 06:36:27;;;;;;;6.70;6.00;;;;;;;16.94;93.30;100902.41;4977993;28;20058;-78
2023/05/07 06:38:53;;;;;;;7.38;6.10;;;;;;;16.62;93.41;100898.44;4976485;28;20407;-78
2023/05/07 06:41:20;;;;;;;8.50;5.95;;;;;;;16.75;93.46;100906.50;4975780;28;20245;-78
2023/05/07 06:43:49;;;;;;;8.00;6.60;;;;;;;16.89;93.72;100910.91;4976249;28;20058;-78
2023/05/07 06:46:16;;;;;;;7.82;6.10;;;;;;;16.87;93.80;100904.19;4974022;28;20334;-78
2023/05/07 06:48:44;;;;;;;7.13;5.70;;;;;;;16.54;94.36;100902.00;4975295;28;20143;-78
2023/05/07 06:51:10;;;;;;;7.50;6.32;;;;;;;16.43;95.00;100912.28;4974637;28;20135;-78
2023/05/07 06:53:37;;;;;;;6.90;5.90;;;;;;;16.26;95.68;100901.13;4975391;28;20070;-78
2023/05/07 06:56:04;;;;;;;8.15;6.10;;;;;;;16.29;95.97;100902.56;4974709;28;20138;-78
2023/05/07 06:58:31;;;;;;;7.63;5.70;;;;;;;17.15;95.30;100906.84;4974304;28;20106;-77
2023/05/07 07:00:57;;;;;;;7.70;5.47;;;;;;;17.03;93.86;100909.19;4973879;28;20138;-78
2023/05/07 07:03:24;;;;;;;6.40;5.20;;;;;;;17.96;91.57;100913.22;4975077;28;20051;-78
2023/05/07 07:05:54;;;;;;;7.25;5.22;;;;;;;18.15;89.38;100903.75;4974690;28;20403;-78
2023/05/07 07:08:22;;;;;;;5.75;5.03;;;;;;;18.68;86.67;100910.00;4974251;28;20604;-77
2023/05/07 07:10:48;;;;;;;7.35;4.93;;;;;;;18.95;85.67;100902.06;4968088;28;20059;-79
2023/05/07 07:13:15;;;;;;;7.38;4.70;;;;;;;19.52;83.09;100917.31;4976399;28;20081;-79
2023/05/07 07:15:42;;;;;;;5.82;4.65;;;;;;;19.40;82.16;100914.44;4973441;28;20055;-79
2023/05/07 07:18:09;;;;;;;5.75;4.30;;;;;;;19.40;80.38;100910.97;4975518;28;20150;-80
2023/05/07 07:20:35;;;;;;;5.43;3.92;;;;;;;19.08;81.02;100897.56;4977301;28;20133;-79
2023/05/07 07:23:05;;;;;;;4.75;3.85;;;;;;;19.33;79.10;100899.59;4940295;23;20151;-78
2023/05/07 07:25:32;;;;;;;5.30;3.97;;;;;;;19.35;78.56;100898.38;4915196;29;20051;-78
2023/05/07 07:27:59;;;;;;;5.25;3.80;;;;;;;19.71;77.77;100905.03;4915890;29;20131;-78
2023/05/07 07:30:26;;;;;;;5.38;3.80;;;;;;;19.51;78.60;100902.44;4915884;29;20135;-77
2023/05/07 07:32:53;;;;;;;5.07;3.70;;;;;;;18.89;78.85;100912.47;4910009;28;20056;-77
2023/05/07 07:35:20;;;;;;;4.22;3.67;;;;;;;19.73;77.58;100897.69;4914916;28;20535;-78
2023/05/07 07:37:50;;;;;;;5.47;3.90;;;;;;;19.67;77.85;100907.28;4916440;29;20079;-79
2023/05/07 07:40:19;;;;;;;6.30;4.00;;;;;;;19.42;77.49;100911.59;4915714;28;20072;-78
2023/05/07 07:42:47;;;;;;;5.00;3.90;;;;;;;19.69;77.02;100905.25;4912364;29;20052;-79
2023/05/07 07:45:13;;;;;;;6.40;3.67;;;;;;;20.55;74.99;100907.50;4913810;28;20075;-78
2023/05/07 07:47:40;;;;;;;8.10;3.70;;;;;;;20.68;73.69;100898.63;4912797;29;20052;-79
2023/05/07 07:50:08;;;;;;;4.65;3.80;;;;;;;20.22;75.04;100913.00;4912892;28;20075;-79
2023/05/07 07:52:35;;;;;;;5.68;4.18;;;;;;;19.85;75.45;100907.41;4911396;29;20052;-76
2023/05/07 07:55:02;;;;;;;5.68;4.03;;;;;;;20.96;74.35;100911.50;4911686;28;20135;-75
2023/05/07 07:57:29;;;;;;;5.25;4.10;;;;;;;20.56;72.95;100909.13;4911850;29;20045;-78
2023/05/07 07:59:56;;;;;;;5.63;3.88;;;;;;;21.32;72.01;100905.47;4911133;29;20123;-77
2023/05/07 08:02:23;;;;;;;4.57;3.90;;;;;;;21.87;69.21;100890.31;4910872;29;20048;-77
2023/05/07 08:04:49;;;;;;;5.35;3.70;;;;;;;22.70;67.32;100898.38;4912117;28;20139;-76
2023/05/07 08:07:18;;;;;;;5.18;3.90;;;;;;;22.01;70.28;100918.44;4912360;28;20055;-78
2023/05/07 08:09:44;;;;;;;4.75;3.72;;;;;;;21.49;70.05;100909.19;4909079;28;20052;-78
2023/05/07 08:12:11;;;;;;;5.47;3.80;;;;;;;21.59;70.45;100909.50;4911064;29;20084;-78
2023/05/07 08:14:39;;;;;;;12.05;4.20;;;;;;;22.13;69.74;100905.19;4910349;29;20052;-79
2023/05/07 08:17:06;;;;;;;4.65;3.75;;;;;;;20.50;72.01;100910.00;4910412;28;20135;-77
2023/05/07 08:19:33;;;;;;;4.32;3.90;;;;;;;20.30;73.84;100910.09;4911678;28;20060;-77
2023/05/07 08:21:59;;;;;;;5.38;4.13;;;;;;;19.94;75.09;100910.66;4920903;28;20063;-77
2023/05/07 08:24:26;;;;;;;7.68;4.30;;;;;;;19.65;75.13;100905.88;4915437;28;20058;-77
2023/05/07 08:26:52;;;;;;;5.05;3.92;;;;;;;20.10;74.47;100910.19;4911011;28;20068;-76
2023/05/07 08:29:19;;;;;;;7.32;4.03;;;;;;;20.48;74.86;100918.19;4899327;28;20053;-78
2023/05/07 08:31:47;;;;;;;5.47;3.90;;;;;;;20.92;72.55;100902.31;4894310;28;20103;-77
2023/05/07 08:34:14;;;;;;;4.93;3.90;;;;;;;20.73;72.86;100912.91;4908533;28;20052;-77
2023/05/07 08:36:43;;;;;;;5.60;4.20;;;;;;;21.17;71.55;100900.47;4891979;29;20058;-77
2023/05/07 08:39:09;;;;;;;6.55;4.00;;;;;;;20.65;72.37;100917.69;4890510;29;20051;-78
2023/05/07 08:41:37;;;;;;;4.95;3.80;;;;;;;20.82;72.69;100916.91;4891732;29;20044;-77
2023/05/07 08:44:07;;;;;;;4.38;3.55;;;;;;;21.28;71.18;100907.75;4894457;28;20586;-77
2023/05/07 08:46:34;;;;;;;7.10;3.95;;;;;;;20.84;70.96;100916.69;4892178;29;20470;-80
2023/05/07 08:49:03;;;;;;;5.95;4.03;;;;;;;21.15;70.22;100907.84;4890180;29;20127;-76
2023/05/07 08:51:31;;;;;;;5.40;4.10;;;;;;;21.07;71.48;100921.44;4895962;28;20487;-78
2023/05/07 08:53:58;;;;;;;4.55;3.75;;;;;;;21.03;70.99;100914.91;4890298;28;20151;-77
2023/05/07 08:56:24;;;;;;;5.45;4.05;;;;;;;21.45;70.29;100905.34;4889110;28;20135;-78
2023/05/07 08:58:51;;;;;;;4.88;3.90;;;;;;;21.57;69.34;100903.56;4889267;28;20041;-77
2023/05/07 09:01:18;;;;;;;5.75;3.88;;;;;;;21.69;68.63;100893.81;4890524;28;20434;-76
2023/05/07 09:03:46;;;;;;;6.55;3.95;;;;;;;21.78;67.86;100900.44;4890831;28;20166;-78
2023/05/07 09:06:15;;;;;;;4.82;3.88;;;;;;;22.41;67.55;100901.91;4900826;28;20511;-77
2023/05/07 09:08:41;;;;;;;6.53;4.03;;;;;;;22.07;66.41;100896.22;4898927;28;20108;-76
2023/05/07 09:11:08;;;;;;;6.63;4.05;;;;;;;21.64;68.05;100900.84;4892520;29;20059;-77
2023/05/07 09:13:34;;;;;;;5.15;3.80;;;;;;;22.08;67.47;100899.72;4894362;29;20115;-76
2023/05/07 09:16:11;;;;;;;5.47;4.10;;;;;;;21.51;68.99;100910.59;4894325;29;20056;-77
2023/05/07 09:18:41;;;;;;;5.90;4.00;;;;;;;22.14;67.43;100894.31;4894677;29;20060;-77
2023/05/07 09:21:11;;;;;;;5.50;3.72;;;;;;;21.62;67.75;100892.25;4905271;29;20068;-75
2023/05/07 09:23:39;;;;;;;4.43;3.80;;;;;;;21.29;69.56;100904.03;4903807;29;20120;-76
2023/05/07 09:26:08;;;;;;;4.45;3.90;;;;;;;22.70;67.98;100913.56;4891605;28;20530;-77
2023/05/07 09:28:35;;;;;;;4.47;3.75;;;;;;;22.52;66.08;100901.94;4890565;28;20045;-76
2023/05/07 09:31:01;;;;;;;8.57;3.90;;;;;;;22.42;65.87;100901.69;4891214;28;20072;-76
2023/05/07 09:33:31;;;;;;;5.18;3.92;;;;;;;23.29;66.16;100909.94;4892462;28;20123;-76
2023/05/07 09:35:58;;;;;;;4.88;3.45;;;;;;;23.01;64.23;100891.97;4899369;28;20497;-76
2023/05/07 09:38:24;;;;;;;5.38;3.78;;;;;;;22.81;63.42;100894.94;4902435;28;20490;-77
2023/05/07 09:41:02;;;;;;;5.28;3.50;;;;;;;22.03;65.43;100903.06;4915159;28;20044;-76
2023/05/07 09:43:34;;;;;;;4.75;3.60;;;;;;;21.90;66.46;100899.69;4891449;29;20055;-77
2023/05/07 09:46:04;;;;;;;4.25;3.45;;;;;;;22.98;67.24;100912.97;4892128;28;20144;-77
2023/05/07 09:48:31;;;;;;;4.80;3.70;;;;;;;22.17;64.84;100896.50;4889615;29;20180;-77
2023/05/07 09:51:03;;;;;;;7.45;3.90;;;;;;;23.17;65.38;100896.59;4892323;29;20099;-77
2023/05/07 09:53:34;;;;;;;3.45;3.15;;;;;;;22.45;63.61;100887.09;4895496;28;20049;-78
2023/05/07 09:56:03;;;;;;;5.05;3.55;;;;;;;22.26;63.70;100882.84;4893158;28;20079;-80
2023/05/07 09:58:33;;;;;;;5.82;4.00;;;;;;;22.50;64.18;100889.88;4938186;28;20046;-79
2023/05/07 10:01:05;;;;;;;5.40;3.65;;;;;;;21.93;64.32;100884.09;4916796;28;20072;-80
2023/05/07 10:03:34;;;;;;;5.03;3.70;;;;;;;22.71;63.88;100886.66;4893681;28;20392;-78
2023/05/07 10:06:02;;;;;;;5.85;3.50;;;;;;;22.53;62.51;100876.09;4892800;29;20143;-77
2023/05/07 10:08:31;;;;;;;4.82;3.60;;;;;;;23.03;62.32;100889.06;4893596;28;20055;-78
2023/05/07 10:10:58;;;;;;;4.78;3.38;;;;;;;22.54;62.53;100884.91;4901158;28;20136;-77
2023/05/07 10:13:26;;;;;;;4.22;3.58;;;;;;;23.30;64.20;100906.22;4895569;29;20055;-79
2023/05/07 10:15:56;;;;;;;5.20;3.90;;;;;;;22.61;63.13;100889.09;4895238;28;20056;-78
2023/05/07 10:18:32;;;;;;;4.68;3.40;;;;;;;22.93;61.66;100872.81;4916147;28;20547;-78
2023/05/07 10:21:04;;;;;;;5.72;3.45;;;;;;;22.95;61.01;100876.06;4901581;29;20064;-78
2023/05/07 10:23:32;;;;;;;4.00;3.60;;;;;;;22.93;63.58;100888.81;4896099;29;20092;-77
2023/05/07 10:26:00;;;;;;;4.25;3.58;;;;;;;22.62;63.03;100881.91;4895643;29;20061;-78
2023/05/07 10:28:31;;;;;;;8.35;3.60;;;;;;;23.74;63.38;100879.94;4896258;29;20055;-79
2023/05/07 10:31:11;;;;;;;4.22;3.30;;;;;;;23.52;59.63;100877.06;4899832;29;20080;-79
2023/05/07 10:33:40;;;;;;;5.35;3.65;;;;;;;22.79;61.75;100880.22;4897122;29;20084;-78
2023/05/07 10:36:07;;;;;;;4.30;3.50;;;;;;;23.35;60.77;100879.63;4894997;29;20076;-77
2023/05/07 10:38:35;;;;;;;4.88;3.30;;;;;;;23.82;59.28;100868.88;4896025;29;20052;-77
2023/05/07 10:41:04;;;;;;;4.15;3.58;;;;;;;24.38;59.38;100875.28;4896413;29;20060;-78
2023/05/07 10:43:42;;;;;;;4.50;3.33;;;;;;;24.20;57.97;100867.44;4895591;29;20488;-78
2023/05/07 10:46:20;;;;;;;4.45;3.28;;;;;;;24.48;57.63;100870.13;4897610;29;20063;-78
2023/05/07 10:49:11;;;;;;;6.22;3.30;;;;;;;24.33;57.16;100862.63;4913022;28;20128;-79
2023/05/07 10:51:38;;;;;;;3.85;3.28;;;;;;;23.97;58.05;100863.84;4895550;29;20132;-79
2023/05/07 10:54:24;;;;;;;6.25;3.65;;;;;;;23.65;58.93;100871.47;4903669;28;20056;-79
2023/05/07 10:56:51;;;;;;;7.32;3.60;;;;;;;23.36;59.27;100867.91;4896672;29;20064;-79
2023/05/07 10:59:44;;;;;;;4.72;3.30;;;;;;;23.19;59.80;100869.66;4899331;28;20049;-79
2023/05/07 11:02:13;;;;;;;3.97;3.33;;;;;;;22.98;59.45;100864.94;4906466;28;20527;-78
2023/05/07 11:04:41;;;;;;;4.63;3.08;;;;;;;23.04;59.50;100869.34;4896311;29;20051;-78
2023/05/07 11:07:25;;;;;;;5.47;3.40;;;;;;;23.37;59.75;100874.88;4898735;28;20056;-80
2023/05/07 11:10:13;;;;;;;3.67;3.17;;;;;;;23.65;58.76;100857.31;4899674;28;20140;-78
2023/05/07 11:12:55;;;;;;;4.70;3.45;;;;;;;23.86;59.12;100867.34;4896103;29;20053;-78
2023/05/07 11:15:41;;;;;;;4.03;3.08;;;;;;;23.41;59.43;100862.69;4893676;29;20084;-78
2023/05/07 11:18:08;;;;;;;8.50;3.63;;;;;;;23.24;60.23;100858.28;4897677;28;20076;-80
2023/05/07 11:21:05;;;;;;;5.53;3.58;;;;;;;23.62;62.55;100873.84;4896717;29;20052;-79